East Farmingdale, New York
Current Conditions -  °F | °C
As of 10:53 PM on Sunday 23 Nov 2014 (Local Time) from KFRG Reporting Station
Overcast Overcast  
Wind Chill: 49°   Ceiling: 4500
Heat Index: 49°   Visibility: 8mi
Dew Point: 46°   Wind: 0mph
Humidity: 90%   Direction: NA
Pressure: 30.05"   Gusts: NA
Location:  40.7334°N, 73.4289°W
Report Text: KFRG 240353Z 00000KT 8SM OVC045 09/08 A3005 RMK AO2 SLP177 T00940078
Loading
Personal Weather Stations






























Interactive Weather Map New forecast layout! Learn more

10-Day Weather Forecast

Advertisements
Track Severe Weather on mobile